<?xml version='1.0' encoding='UTF-8'?><gpx version="1.1" creator="JPX - https://github.com/jenetics/jpx" xmlns="http://www.topografix.com/GPX/1/1"><trk><trkseg><trkpt lat="43.2823452" lon="12.5902102"><ele>601.0</ele><time>2026-04-09T11:34:59.906Z</time></trkpt><trkpt lat="43.2824227" lon="12.5901877"><ele>601.0</ele><time>2026-04-09T11:35:02.906Z</time></trkpt><trkpt lat="43.2824867" lon="12.5901652"><ele>601.0</ele><time>2026-04-09T11:35:05.906Z</time></trkpt><trkpt lat="43.2825544" lon="12.590156"><ele>601.0</ele><time>2026-04-09T11:35:08.905Z</time></trkpt><trkpt lat="43.2826197" lon="12.5901348"><ele>601.0</ele><time>2026-04-09T11:35:11.906Z</time></trkpt><trkpt lat="43.2826989" lon="12.5901158"><ele>601.0</ele><time>2026-04-09T11:35:15.906Z</time></trkpt><trkpt lat="43.2828376" lon="12.590078"><ele>601.0</ele><time>2026-04-09T11:35:39.905Z</time></trkpt><trkpt lat="43.2828935" lon="12.5900084"><ele>601.0</ele><time>2026-04-09T11:35:42.905Z</time></trkpt><trkpt lat="43.2829024" lon="12.5899167"><ele>601.0</ele><time>2026-04-09T11:35:44.907Z</time></trkpt><trkpt lat="43.2828759" lon="12.5897987"><ele>601.0</ele><time>2026-04-09T11:35:46.906Z</time></trkpt><trkpt lat="43.2828443" lon="12.5896747"><ele>601.0</ele><time>2026-04-09T11:35:48.906Z</time></trkpt><trkpt lat="43.2828243" lon="12.5895765"><ele>601.0</ele><time>2026-04-09T11:35:50.907Z</time></trkpt><trkpt lat="43.2828037" lon="12.5894713"><ele>600.1666666666667</ele><time>2026-04-09T11:35:52.906Z</time></trkpt><trkpt lat="43.2827798" lon="12.589361"><ele>599.3333333333334</ele><time>2026-04-09T11:35:54.905Z</time></trkpt><trkpt lat="43.2827584" lon="12.589259"><ele>598.5</ele><time>2026-04-09T11:35:56.906Z</time></trkpt><trkpt lat="43.2827262" lon="12.5891129"><ele>597.6666666666666</ele><time>2026-04-09T11:35:58.908Z</time></trkpt><trkpt lat="43.2827" lon="12.5890156"><ele>596.8333333333333</ele><time>2026-04-09T11:35:59.905Z</time></trkpt><trkpt lat="43.2826694" lon="12.5889077"><ele>596.0</ele><time>2026-04-09T11:36:00.906Z</time></trkpt><trkpt lat="43.2826475" lon="12.5888039"><ele>596.0</ele><time>2026-04-09T11:36:01.905Z</time></trkpt><trkpt lat="43.2826295" lon="12.5887046"><ele>596.0</ele><time>2026-04-09T11:36:02.905Z</time></trkpt><trkpt lat="43.2826101" lon="12.5886118"><ele>596.0</ele><time>2026-04-09T11:36:03.905Z</time></trkpt><trkpt lat="43.2825941" lon="12.5885186"><ele>596.0</ele><time>2026-04-09T11:36:04.905Z</time></trkpt><trkpt lat="43.2825784" lon="12.5884242"><ele>596.0</ele><time>2026-04-09T11:36:05.905Z</time></trkpt><trkpt lat="43.2825492" lon="12.5883369"><ele>596.0</ele><time>2026-04-09T11:36:06.905Z</time></trkpt><trkpt lat="43.2825132" lon="12.588242"><ele>596.0</ele><time>2026-04-09T11:36:07.905Z</time></trkpt><trkpt lat="43.2824837" lon="12.5881428"><ele>594.0</ele><time>2026-04-09T11:36:08.906Z</time></trkpt><trkpt lat="43.2824544" lon="12.5880379"><ele>592.0</ele><time>2026-04-09T11:36:09.905Z</time></trkpt><trkpt lat="43.28242" lon="12.5879313"><ele>590.0</ele><time>2026-04-09T11:36:10.906Z</time></trkpt><trkpt lat="43.2823876" lon="12.5878091"><ele>588.0</ele><time>2026-04-09T11:36:11.906Z</time></trkpt><trkpt lat="43.28236" lon="12.5876842"><ele>586.0</ele><time>2026-04-09T11:36:12.905Z</time></trkpt><trkpt lat="43.2823398" lon="12.5875792"><ele>584.0</ele><time>2026-04-09T11:36:13.905Z</time></trkpt><trkpt lat="43.2823308" lon="12.5874682"><ele>582.4285714285714</ele><time>2026-04-09T11:36:14.905Z</time></trkpt><trkpt lat="43.2823341" lon="12.5873619"><ele>580.8571428571429</ele><time>2026-04-09T11:36:15.906Z</time></trkpt><trkpt lat="43.2823336" lon="12.5872583"><ele>579.2857142857143</ele><time>2026-04-09T11:36:16.906Z</time></trkpt><trkpt lat="43.2823252" lon="12.5871586"><ele>577.7142857142858</ele><time>2026-04-09T11:36:17.907Z</time></trkpt><trkpt lat="43.2823219" lon="12.5870714"><ele>576.1428571428572</ele><time>2026-04-09T11:36:18.906Z</time></trkpt><trkpt lat="43.2823145" lon="12.5869815"><ele>574.5714285714286</ele><time>2026-04-09T11:36:19.906Z</time></trkpt><trkpt lat="43.282301" lon="12.5868865"><ele>573.0</ele><time>2026-04-09T11:36:20.906Z</time></trkpt><trkpt lat="43.2822766" lon="12.5867936"><ele>573.6666666666666</ele><time>2026-04-09T11:36:21.906Z</time></trkpt><trkpt lat="43.2822361" lon="12.5867132"><ele>574.3333333333334</ele><time>2026-04-09T11:36:22.905Z</time></trkpt><trkpt lat="43.2821902" lon="12.5866369"><ele>575.0</ele><time>2026-04-09T11:36:23.905Z</time></trkpt><trkpt lat="43.2821475" lon="12.5865526"><ele>575.6666666666667</ele><time>2026-04-09T11:36:24.905Z</time></trkpt><trkpt lat="43.2821123" lon="12.5864781"><ele>576.3333333333334</ele><time>2026-04-09T11:36:25.906Z</time></trkpt><trkpt lat="43.2820755" lon="12.5864033"><ele>577.0</ele><time>2026-04-09T11:36:26.905Z</time></trkpt><trkpt lat="43.2820031" lon="12.5862865"><ele>577.0</ele><time>2026-04-09T11:36:28.905Z</time></trkpt><trkpt lat="43.281915" lon="12.5861883"><ele>577.0</ele><time>2026-04-09T11:36:30.906Z</time></trkpt><trkpt lat="43.2818537" lon="12.5861581"><ele>577.0</ele><time>2026-04-09T11:36:31.906Z</time></trkpt><trkpt lat="43.2817928" lon="12.5861266"><ele>577.0</ele><time>2026-04-09T11:36:32.906Z</time></trkpt><trkpt lat="43.281729" lon="12.586105"><ele>577.0</ele><time>2026-04-09T11:36:33.907Z</time></trkpt><trkpt lat="43.2816623" lon="12.5860801"><ele>577.0</ele><time>2026-04-09T11:36:34.905Z</time></trkpt><trkpt lat="43.2816022" lon="12.5860465"><ele>577.0</ele><time>2026-04-09T11:36:35.906Z</time></trkpt><trkpt lat="43.2815397" lon="12.5860302"><ele>574.0</ele><time>2026-04-09T11:36:36.905Z</time></trkpt><trkpt lat="43.2814254" lon="12.5860146"><ele>571.0</ele><time>2026-04-09T11:36:38.906Z</time></trkpt><trkpt lat="43.28133" lon="12.5859815"><ele>568.0</ele><time>2026-04-09T11:36:40.905Z</time></trkpt><trkpt lat="43.2812913" lon="12.5858879"><ele>565.0</ele><time>2026-04-09T11:36:43.905Z</time></trkpt><trkpt lat="43.2813213" lon="12.5858038"><ele>562.0</ele><time>2026-04-09T11:36:45.906Z</time></trkpt><trkpt lat="43.2814342" lon="12.5857269"><ele>561.5</ele><time>2026-04-09T11:36:47.905Z</time></trkpt><trkpt lat="43.2814976" lon="12.585686"><ele>561.0</ele><time>2026-04-09T11:36:48.906Z</time></trkpt><trkpt lat="43.281561" lon="12.5856566"><ele>560.5</ele><time>2026-04-09T11:36:49.906Z</time></trkpt><trkpt lat="43.281638" lon="12.585611"><ele>560.0</ele><time>2026-04-09T11:36:50.905Z</time></trkpt><trkpt lat="43.2817185" lon="12.5855745"><ele>559.5</ele><time>2026-04-09T11:36:51.905Z</time></trkpt><trkpt lat="43.2818022" lon="12.5855345"><ele>559.0</ele><time>2026-04-09T11:36:52.905Z</time></trkpt><trkpt lat="43.2818942" lon="12.5854986"><ele>559.0</ele><time>2026-04-09T11:36:53.905Z</time></trkpt><trkpt lat="43.2819859" lon="12.5854677"><ele>559.0</ele><time>2026-04-09T11:36:54.905Z</time></trkpt><trkpt lat="43.2820667" lon="12.5854425"><ele>559.0</ele><time>2026-04-09T11:36:55.905Z</time></trkpt><trkpt lat="43.2821528" lon="12.5854121"><ele>559.0</ele><time>2026-04-09T11:36:56.905Z</time></trkpt><trkpt lat="43.2822291" lon="12.5853875"><ele>559.0</ele><time>2026-04-09T11:36:57.905Z</time></trkpt><trkpt lat="43.2823027" lon="12.5853547"><ele>559.0</ele><time>2026-04-09T11:36:58.906Z</time></trkpt><trkpt lat="43.2823723" lon="12.5853112"><ele>555.0</ele><time>2026-04-09T11:36:59.906Z</time></trkpt><trkpt lat="43.2824427" lon="12.5852738"><ele>551.0</ele><time>2026-04-09T11:37:00.905Z</time></trkpt><trkpt lat="43.2825194" lon="12.5852382"><ele>547.0</ele><time>2026-04-09T11:37:01.906Z</time></trkpt><trkpt lat="43.282591" lon="12.5852079"><ele>543.0</ele><time>2026-04-09T11:37:02.905Z</time></trkpt><trkpt lat="43.2826635" lon="12.5851907"><ele>539.0</ele><time>2026-04-09T11:37:03.905Z</time></trkpt><trkpt lat="43.2827422" lon="12.5851788"><ele>535.0</ele><time>2026-04-09T11:37:04.905Z</time></trkpt><trkpt lat="43.2828142" lon="12.5851748"><ele>535.0</ele><time>2026-04-09T11:37:05.906Z</time></trkpt><trkpt lat="43.2828899" lon="12.5851796"><ele>535.0</ele><time>2026-04-09T11:37:06.906Z</time></trkpt><trkpt lat="43.2829638" lon="12.5851848"><ele>535.0</ele><time>2026-04-09T11:37:07.905Z</time></trkpt><trkpt lat="43.2830823" lon="12.5851982"><ele>535.0</ele><time>2026-04-09T11:37:09.905Z</time></trkpt><trkpt lat="43.2831972" lon="12.585194"><ele>535.0</ele><time>2026-04-09T11:37:11.905Z</time></trkpt><trkpt lat="43.283312" lon="12.5851606"><ele>533.3333333333334</ele><time>2026-04-09T11:37:13.905Z</time></trkpt><trkpt lat="43.2834227" lon="12.5850798"><ele>531.6666666666667</ele><time>2026-04-09T11:37:15.906Z</time></trkpt><trkpt lat="43.2834776" lon="12.5850192"><ele>530.0</ele><time>2026-04-09T11:37:16.905Z</time></trkpt><trkpt lat="43.2835319" lon="12.5849581"><ele>528.3333333333334</ele><time>2026-04-09T11:37:17.905Z</time></trkpt><trkpt lat="43.283592" lon="12.5848796"><ele>526.6666666666666</ele><time>2026-04-09T11:37:18.905Z</time></trkpt><trkpt lat="43.2836542" lon="12.5848042"><ele>525.0</ele><time>2026-04-09T11:37:19.905Z</time></trkpt><trkpt lat="43.2837171" lon="12.5847424"><ele>525.0</ele><time>2026-04-09T11:37:20.905Z</time></trkpt><trkpt lat="43.2837855" lon="12.5846626"><ele>525.0</ele><time>2026-04-09T11:37:21.905Z</time></trkpt><trkpt lat="43.283855" lon="12.5845874"><ele>525.0</ele><time>2026-04-09T11:37:22.906Z</time></trkpt><trkpt lat="43.2839284" lon="12.5845227"><ele>525.0</ele><time>2026-04-09T11:37:23.905Z</time></trkpt><trkpt lat="43.2840027" lon="12.5844608"><ele>525.0</ele><time>2026-04-09T11:37:24.906Z</time></trkpt><trkpt lat="43.2840787" lon="12.5844054"><ele>525.0</ele><time>2026-04-09T11:37:25.905Z</time></trkpt><trkpt lat="43.2841508" lon="12.5843569"><ele>521.8333333333334</ele><time>2026-04-09T11:37:26.906Z</time></trkpt><trkpt lat="43.2842237" lon="12.5843132"><ele>518.6666666666666</ele><time>2026-04-09T11:37:27.905Z</time></trkpt><trkpt lat="43.284293" lon="12.5842645"><ele>515.5</ele><time>2026-04-09T11:37:28.905Z</time></trkpt><trkpt lat="43.2843634" lon="12.5842121"><ele>512.3333333333333</ele><time>2026-04-09T11:37:29.906Z</time></trkpt><trkpt lat="43.2844343" lon="12.5841589"><ele>509.16666666666663</ele><time>2026-04-09T11:37:30.905Z</time></trkpt><trkpt lat="43.2845056" lon="12.5841199"><ele>506.0</ele><time>2026-04-09T11:37:31.905Z</time></trkpt><trkpt lat="43.2845813" lon="12.5840863"><ele>506.00000000000006</ele><time>2026-04-09T11:37:32.905Z</time></trkpt><trkpt lat="43.2846511" lon="12.584049"><ele>506.0</ele><time>2026-04-09T11:37:33.906Z</time></trkpt><trkpt lat="43.2847206" lon="12.5840193"><ele>506.00000000000006</ele><time>2026-04-09T11:37:34.905Z</time></trkpt><trkpt lat="43.2847913" lon="12.5839954"><ele>506.00000000000006</ele><time>2026-04-09T11:37:35.905Z</time></trkpt><trkpt lat="43.284862" lon="12.5839666"><ele>506.0</ele><time>2026-04-09T11:37:36.906Z</time></trkpt><trkpt lat="43.2849259" lon="12.5839287"><ele>506.00000000000006</ele><time>2026-04-09T11:37:37.905Z</time></trkpt><trkpt lat="43.2849909" lon="12.5838927"><ele>506.00000000000006</ele><time>2026-04-09T11:37:38.905Z</time></trkpt><trkpt lat="43.2850527" lon="12.5838601"><ele>506.1428571428572</ele><time>2026-04-09T11:37:39.906Z</time></trkpt><trkpt lat="43.2851238" lon="12.5838282"><ele>506.28571428571433</ele><time>2026-04-09T11:37:40.905Z</time></trkpt><trkpt lat="43.2851939" lon="12.5837959"><ele>506.42857142857144</ele><time>2026-04-09T11:37:41.906Z</time></trkpt><trkpt lat="43.2852618" lon="12.5837559"><ele>506.5714285714286</ele><time>2026-04-09T11:37:42.905Z</time></trkpt><trkpt lat="43.2853287" lon="12.5837234"><ele>506.7142857142858</ele><time>2026-04-09T11:37:43.905Z</time></trkpt><trkpt lat="43.2853995" lon="12.5836898"><ele>506.85714285714283</ele><time>2026-04-09T11:37:44.905Z</time></trkpt><trkpt lat="43.2854654" lon="12.5836518"><ele>507.0</ele><time>2026-04-09T11:37:45.905Z</time></trkpt><trkpt lat="43.2855314" lon="12.5836111"><ele>507.1666666666667</ele><time>2026-04-09T11:37:46.905Z</time></trkpt><trkpt lat="43.2855968" lon="12.5835725"><ele>507.33333333333337</ele><time>2026-04-09T11:37:47.905Z</time></trkpt><trkpt lat="43.2856576" lon="12.5835289"><ele>507.5</ele><time>2026-04-09T11:37:48.905Z</time></trkpt><trkpt lat="43.2857143" lon="12.5834823"><ele>507.6666666666667</ele><time>2026-04-09T11:37:49.906Z</time></trkpt><trkpt lat="43.2857744" lon="12.5834359"><ele>507.83333333333337</ele><time>2026-04-09T11:37:50.905Z</time></trkpt><trkpt lat="43.2858764" lon="12.5833543"><ele>508.0</ele><time>2026-04-09T11:37:52.905Z</time></trkpt><trkpt lat="43.2859794" lon="12.5832792"><ele>508.0</ele><time>2026-04-09T11:37:54.906Z</time></trkpt><trkpt lat="43.2860614" lon="12.583189"><ele>507.99999999999994</ele><time>2026-04-09T11:37:56.905Z</time></trkpt><trkpt lat="43.2861344" lon="12.5831169"><ele>507.99999999999994</ele><time>2026-04-09T11:37:58.905Z</time></trkpt><trkpt lat="43.2862351" lon="12.5830409"><ele>508.0</ele><time>2026-04-09T11:38:00.905Z</time></trkpt><trkpt lat="43.2862886" lon="12.5829952"><ele>508.0</ele><time>2026-04-09T11:38:01.905Z</time></trkpt><trkpt lat="43.2863965" lon="12.582909"><ele>506.79999999999995</ele><time>2026-04-09T11:38:03.906Z</time></trkpt><trkpt lat="43.2864575" lon="12.5828631"><ele>505.59999999999997</ele><time>2026-04-09T11:38:04.905Z</time></trkpt><trkpt lat="43.2865658" lon="12.5827875"><ele>504.40000000000003</ele><time>2026-04-09T11:38:06.904Z</time></trkpt><trkpt lat="43.2866715" lon="12.5827022"><ele>503.20000000000005</ele><time>2026-04-09T11:38:08.906Z</time></trkpt><trkpt lat="43.2867279" lon="12.5826632"><ele>502.0</ele><time>2026-04-09T11:38:09.906Z</time></trkpt><trkpt lat="43.2868173" lon="12.5825843"><ele>502.00000000000006</ele><time>2026-04-09T11:38:11.905Z</time></trkpt><trkpt lat="43.2869047" lon="12.5825192"><ele>502.0</ele><time>2026-04-09T11:38:13.905Z</time></trkpt><trkpt lat="43.2869887" lon="12.5824599"><ele>502.0</ele><time>2026-04-09T11:38:15.904Z</time></trkpt><trkpt lat="43.2870673" lon="12.5824232"><ele>502.0</ele><time>2026-04-09T11:38:17.905Z</time></trkpt><trkpt lat="43.2871397" lon="12.5823987"><ele>502.00000000000006</ele><time>2026-04-09T11:38:19.905Z</time></trkpt><trkpt lat="43.287213" lon="12.5823686"><ele>502.0</ele><time>2026-04-09T11:38:21.905Z</time></trkpt><trkpt lat="43.2872836" lon="12.5823413"><ele>502.50000000000006</ele><time>2026-04-09T11:38:23.905Z</time></trkpt><trkpt lat="43.2873562" lon="12.5823093"><ele>503.0</ele><time>2026-04-09T11:38:25.906Z</time></trkpt><trkpt lat="43.2874323" lon="12.5822822"><ele>503.5</ele><time>2026-04-09T11:38:27.905Z</time></trkpt><trkpt lat="43.28751" lon="12.5822541"><ele>504.0</ele><time>2026-04-09T11:38:29.906Z</time></trkpt><trkpt lat="43.2875878" lon="12.582236"><ele>504.50000000000006</ele><time>2026-04-09T11:38:31.905Z</time></trkpt><trkpt lat="43.2876638" lon="12.5822181"><ele>505.0</ele><time>2026-04-09T11:39:23.906Z</time></trkpt><trkpt lat="43.287736" lon="12.5821915"><ele>505.00000000000006</ele><time>2026-04-09T11:39:26.905Z</time></trkpt><trkpt lat="43.2877997" lon="12.5821839"><ele>505.0</ele><time>2026-04-09T11:39:28.906Z</time></trkpt><trkpt lat="43.2878728" lon="12.5821827"><ele>505.0</ele><time>2026-04-09T11:39:30.905Z</time></trkpt><trkpt lat="43.2879532" lon="12.5821758"><ele>505.0</ele><time>2026-04-09T11:39:32.904Z</time></trkpt><trkpt lat="43.2880505" lon="12.58216"><ele>505.00000000000006</ele><time>2026-04-09T11:39:34.904Z</time></trkpt><trkpt lat="43.2881557" lon="12.5821536"><ele>505.0</ele><time>2026-04-09T11:39:36.905Z</time></trkpt><trkpt lat="43.2882652" lon="12.5821368"><ele>504.4</ele><time>2026-04-09T11:39:38.905Z</time></trkpt><trkpt lat="43.2883677" lon="12.5821058"><ele>503.8</ele><time>2026-04-09T11:39:40.904Z</time></trkpt><trkpt lat="43.2884808" lon="12.5820769"><ele>503.20000000000005</ele><time>2026-04-09T11:39:42.905Z</time></trkpt><trkpt lat="43.288598" lon="12.5820898"><ele>502.6</ele><time>2026-04-09T11:39:44.904Z</time></trkpt><trkpt lat="43.2886605" lon="12.5821064"><ele>502.0</ele><time>2026-04-09T11:39:45.905Z</time></trkpt><trkpt lat="43.2887556" lon="12.5821632"><ele>502.0</ele><time>2026-04-09T11:39:47.905Z</time></trkpt><trkpt lat="43.2888598" lon="12.5822291"><ele>502.00000000000006</ele><time>2026-04-09T11:39:49.906Z</time></trkpt><trkpt lat="43.2889701" lon="12.5823057"><ele>502.00000000000006</ele><time>2026-04-09T11:39:51.905Z</time></trkpt><trkpt lat="43.2890797" lon="12.5823837"><ele>502.0</ele><time>2026-04-09T11:39:53.905Z</time></trkpt><trkpt lat="43.2891393" lon="12.5824135"><ele>502.0</ele><time>2026-04-09T11:39:54.905Z</time></trkpt><trkpt lat="43.289202" lon="12.5824409"><ele>501.1428571428571</ele><time>2026-04-09T11:39:55.905Z</time></trkpt><trkpt lat="43.2892682" lon="12.5824657"><ele>500.2857142857143</ele><time>2026-04-09T11:39:56.904Z</time></trkpt><trkpt lat="43.2893344" lon="12.5824896"><ele>499.42857142857144</ele><time>2026-04-09T11:39:57.905Z</time></trkpt><trkpt lat="43.2894014" lon="12.5825066"><ele>498.57142857142856</ele><time>2026-04-09T11:39:58.905Z</time></trkpt><trkpt lat="43.2894672" lon="12.5825156"><ele>497.7142857142858</ele><time>2026-04-09T11:39:59.905Z</time></trkpt><trkpt lat="43.2895372" lon="12.5825256"><ele>496.8571428571429</ele><time>2026-04-09T11:40:00.904Z</time></trkpt><trkpt lat="43.2896066" lon="12.5825374"><ele>496.0</ele><time>2026-04-09T11:40:01.905Z</time></trkpt><trkpt lat="43.2896709" lon="12.5825573"><ele>496.0</ele><time>2026-04-09T11:40:02.904Z</time></trkpt><trkpt lat="43.2897341" lon="12.5825838"><ele>496.0</ele><time>2026-04-09T11:40:03.905Z</time></trkpt><trkpt lat="43.2898412" lon="12.5826371"><ele>496.0</ele><time>2026-04-09T11:40:05.905Z</time></trkpt><trkpt lat="43.2899421" lon="12.5826907"><ele>496.0</ele><time>2026-04-09T11:40:07.905Z</time></trkpt><trkpt lat="43.290057" lon="12.5827301"><ele>496.0</ele><time>2026-04-09T11:40:09.906Z</time></trkpt><trkpt lat="43.2901847" lon="12.5827642"><ele>495.28571428571433</ele><time>2026-04-09T11:40:11.906Z</time></trkpt><trkpt lat="43.2902555" lon="12.582771"><ele>494.5714285714286</ele><time>2026-04-09T11:40:12.904Z</time></trkpt><trkpt lat="43.2903249" lon="12.5827763"><ele>493.8571428571429</ele><time>2026-04-09T11:40:13.904Z</time></trkpt><trkpt lat="43.290399" lon="12.5827888"><ele>493.1428571428571</ele><time>2026-04-09T11:40:14.904Z</time></trkpt><trkpt lat="43.2904728" lon="12.5828012"><ele>492.4285714285714</ele><time>2026-04-09T11:40:15.905Z</time></trkpt><trkpt lat="43.2905351" lon="12.5828312"><ele>491.71428571428567</ele><time>2026-04-09T11:40:16.904Z</time></trkpt><trkpt lat="43.2906018" lon="12.5828568"><ele>491.0</ele><time>2026-04-09T11:40:17.905Z</time></trkpt><trkpt lat="43.2906681" lon="12.5828769"><ele>491.0</ele><time>2026-04-09T11:40:18.906Z</time></trkpt><trkpt lat="43.2907738" lon="12.5829184"><ele>491.0</ele><time>2026-04-09T11:40:20.906Z</time></trkpt><trkpt lat="43.2908733" lon="12.5829759"><ele>491.0</ele><time>2026-04-09T11:40:22.905Z</time></trkpt><trkpt lat="43.2909543" lon="12.5830299"><ele>491.0</ele><time>2026-04-09T11:40:24.905Z</time></trkpt><trkpt lat="43.2910322" lon="12.5830762"><ele>491.0</ele><time>2026-04-09T11:40:26.904Z</time></trkpt><trkpt lat="43.291112" lon="12.5831165"><ele>490.99999999999994</ele><time>2026-04-09T11:40:28.905Z</time></trkpt><trkpt lat="43.2911825" lon="12.5831453"><ele>491.0</ele><time>2026-04-09T11:40:30.905Z</time></trkpt><trkpt lat="43.2912491" lon="12.5831685"><ele>491.0</ele><time>2026-04-09T11:40:32.906Z</time></trkpt><trkpt lat="43.2913143" lon="12.5831868"><ele>491.0</ele><time>2026-04-09T11:40:34.905Z</time></trkpt><trkpt lat="43.2913819" lon="12.5832385"><ele>490.99999999999994</ele><time>2026-04-09T11:40:37.906Z</time></trkpt><trkpt lat="43.2913787" lon="12.5833385"><ele>491.0</ele><time>2026-04-09T11:40:40.905Z</time></trkpt><trkpt lat="43.2913456" lon="12.5834599"><ele>490.99999999999994</ele><time>2026-04-09T11:40:43.905Z</time></trkpt><trkpt lat="43.2913142" lon="12.5835358"><ele>491.0</ele><time>2026-04-09T11:40:45.904Z</time></trkpt><trkpt lat="43.2912697" lon="12.5836401"><ele>491.0</ele><time>2026-04-09T11:40:48.905Z</time></trkpt><trkpt lat="43.2912261" lon="12.5837414"><ele>491.0</ele><time>2026-04-09T11:40:51.906Z</time></trkpt><trkpt lat="43.2911904" lon="12.5838255"><ele>490.99999999999994</ele><time>2026-04-09T11:40:53.905Z</time></trkpt><trkpt lat="43.29115" lon="12.5839107"><ele>491.0</ele><time>2026-04-09T11:40:55.904Z</time></trkpt><trkpt lat="43.2911121" lon="12.5839946"><ele>488.99999999999994</ele><time>2026-04-09T11:40:57.905Z</time></trkpt><trkpt lat="43.2910727" lon="12.5840831"><ele>487.0</ele><time>2026-04-09T11:40:59.906Z</time></trkpt><trkpt lat="43.2910366" lon="12.5841719"><ele>485.0</ele><time>2026-04-09T11:41:01.904Z</time></trkpt><trkpt lat="43.2909999" lon="12.5842682"><ele>483.0</ele><time>2026-04-09T11:41:03.905Z</time></trkpt><trkpt lat="43.2909587" lon="12.5843777"><ele>480.99999999999994</ele><time>2026-04-09T11:41:05.905Z</time></trkpt><trkpt lat="43.2909106" lon="12.5845039"><ele>479.0</ele><time>2026-04-09T11:41:07.906Z</time></trkpt><trkpt lat="43.2908637" lon="12.5846206"><ele>477.0</ele><time>2026-04-09T11:41:09.905Z</time></trkpt><trkpt lat="43.2908233" lon="12.5847392"><ele>475.0</ele><time>2026-04-09T11:41:11.904Z</time></trkpt><trkpt lat="43.2907776" lon="12.5848579"><ele>473.0</ele><time>2026-04-09T11:41:13.905Z</time></trkpt><trkpt lat="43.2907233" lon="12.5849866"><ele>471.0</ele><time>2026-04-09T11:41:15.904Z</time></trkpt><trkpt lat="43.2906668" lon="12.5851354"><ele>469.0</ele><time>2026-04-09T11:41:17.905Z</time></trkpt><trkpt lat="43.2906353" lon="12.5852142"><ele>467.79999999999995</ele><time>2026-04-09T11:41:18.904Z</time></trkpt><trkpt lat="43.2905756" lon="12.5853611"><ele>466.59999999999997</ele><time>2026-04-09T11:41:20.904Z</time></trkpt><trkpt lat="43.2905238" lon="12.5854942"><ele>465.4</ele><time>2026-04-09T11:41:22.904Z</time></trkpt><trkpt lat="43.2904775" lon="12.5856198"><ele>464.2</ele><time>2026-04-09T11:41:24.905Z</time></trkpt><trkpt lat="43.2904348" lon="12.5857399"><ele>463.0</ele><time>2026-04-09T11:41:26.906Z</time></trkpt><trkpt lat="43.2903967" lon="12.5858487"><ele>463.0</ele><time>2026-04-09T11:41:28.905Z</time></trkpt><trkpt lat="43.2903646" lon="12.5859378"><ele>462.99999999999994</ele><time>2026-04-09T11:41:30.904Z</time></trkpt><trkpt lat="43.2902881" lon="12.5860051"><ele>463.0</ele><time>2026-04-09T11:41:33.904Z</time></trkpt><trkpt lat="43.2902203" lon="12.5859984"><ele>463.0</ele><time>2026-04-09T11:41:35.906Z</time></trkpt><trkpt lat="43.2901547" lon="12.5859709"><ele>462.99999999999994</ele><time>2026-04-09T11:41:37.904Z</time></trkpt><trkpt lat="43.2900856" lon="12.5859324"><ele>463.0</ele><time>2026-04-09T11:41:39.905Z</time></trkpt><trkpt lat="43.2900208" lon="12.5858956"><ele>463.0</ele><time>2026-04-09T11:41:41.905Z</time></trkpt><trkpt lat="43.2899555" lon="12.5858638"><ele>463.00000000000006</ele><time>2026-04-09T11:41:43.907Z</time></trkpt><trkpt lat="43.2898855" lon="12.5858575"><ele>463.0</ele><time>2026-04-09T11:41:46.906Z</time></trkpt><trkpt lat="43.2898468" lon="12.585944"><ele>463.0</ele><time>2026-04-09T11:41:50.905Z</time></trkpt><trkpt lat="43.2899097" lon="12.5858762"><ele>463.0</ele><time>2026-04-09T11:42:02.904Z</time></trkpt><trkpt lat="43.2899782" lon="12.5858667"><ele>463.00000000000006</ele><time>2026-04-09T11:42:04.905Z</time></trkpt><trkpt lat="43.2900522" lon="12.5858949"><ele>463.0</ele><time>2026-04-09T11:42:06.905Z</time></trkpt><trkpt lat="43.2901326" lon="12.5859421"><ele>463.00000000000006</ele><time>2026-04-09T11:42:08.904Z</time></trkpt><trkpt lat="43.2902035" lon="12.5859837"><ele>463.0</ele><time>2026-04-09T11:42:10.905Z</time></trkpt><trkpt lat="43.2902689" lon="12.5859996"><ele>463.0</ele><time>2026-04-09T11:42:12.905Z</time></trkpt><trkpt lat="43.2903315" lon="12.585959"><ele>463.0</ele><time>2026-04-09T11:42:14.904Z</time></trkpt><trkpt lat="43.2903799" lon="12.5858488"><ele>463.00000000000006</ele><time>2026-04-09T11:42:16.904Z</time></trkpt><trkpt lat="43.2904217" lon="12.5857202"><ele>463.0</ele><time>2026-04-09T11:42:18.904Z</time></trkpt><trkpt lat="43.2904708" lon="12.5855833"><ele>463.0</ele><time>2026-04-09T11:42:20.905Z</time></trkpt><trkpt lat="43.2905184" lon="12.5854561"><ele>462.99999999999994</ele><time>2026-04-09T11:42:22.904Z</time></trkpt><trkpt lat="43.2905697" lon="12.5853302"><ele>462.99999999999994</ele><time>2026-04-09T11:42:24.904Z</time></trkpt><trkpt lat="43.2906231" lon="12.5852024"><ele>463.0</ele><time>2026-04-09T11:42:26.904Z</time></trkpt><trkpt lat="43.2906713" lon="12.5850787"><ele>463.0</ele><time>2026-04-09T11:42:28.904Z</time></trkpt><trkpt lat="43.2907182" lon="12.5849652"><ele>464.00000000000006</ele><time>2026-04-09T11:42:30.904Z</time></trkpt><trkpt lat="43.2907626" lon="12.584858"><ele>465.0</ele><time>2026-04-09T11:42:32.904Z</time></trkpt><trkpt lat="43.2908017" lon="12.5847712"><ele>466.0</ele><time>2026-04-09T11:42:34.906Z</time></trkpt><trkpt lat="43.2908405" lon="12.5846855"><ele>467.0</ele><time>2026-04-09T11:42:36.904Z</time></trkpt><trkpt lat="43.2908743" lon="12.5846009"><ele>468.00000000000006</ele><time>2026-04-09T11:42:38.905Z</time></trkpt><trkpt lat="43.2909091" lon="12.5844783"><ele>469.0</ele><time>2026-04-09T11:42:41.905Z</time></trkpt><trkpt lat="43.2909388" lon="12.5843919"><ele>470.6666666666667</ele><time>2026-04-09T11:42:43.922Z</time></trkpt><trkpt lat="43.2909665" lon="12.5843127"><ele>472.33333333333337</ele><time>2026-04-09T11:42:45.876Z</time></trkpt><trkpt lat="43.2910083" lon="12.5842139"><ele>474.0</ele><time>2026-04-09T11:42:48.818Z</time></trkpt><trkpt lat="43.291048" lon="12.584123"><ele>475.66666666666663</ele><time>2026-04-09T11:42:51.905Z</time></trkpt><trkpt lat="43.2910862" lon="12.5840399"><ele>477.3333333333333</ele><time>2026-04-09T11:42:54.904Z</time></trkpt><trkpt lat="43.2911241" lon="12.5839557"><ele>479.0</ele><time>2026-04-09T11:42:57.904Z</time></trkpt><trkpt lat="43.2911695" lon="12.5838559"><ele>479.0</ele><time>2026-04-09T11:43:01.905Z</time></trkpt><trkpt lat="43.2911976" lon="12.5837775"><ele>479.0</ele><time>2026-04-09T11:43:04.904Z</time></trkpt><trkpt lat="43.2912432" lon="12.583683"><ele>479.0</ele><time>2026-04-09T11:43:08.904Z</time></trkpt><trkpt lat="43.2912819" lon="12.583601"><ele>479.0</ele><time>2026-04-09T11:43:11.904Z</time></trkpt><trkpt lat="43.291309" lon="12.5835218"><ele>479.0</ele><time>2026-04-09T11:43:14.904Z</time></trkpt><trkpt lat="43.2913502" lon="12.5834267"><ele>479.0</ele><time>2026-04-09T11:43:18.905Z</time></trkpt><trkpt lat="43.2913793" lon="12.5833478"><ele>479.0</ele><time>2026-04-09T11:43:22.904Z</time></trkpt><trkpt lat="43.2914312" lon="12.5832939"><ele>480.16666666666663</ele><time>2026-04-09T11:43:25.905Z</time></trkpt><trkpt lat="43.2915025" lon="12.5833609"><ele>481.3333333333333</ele><time>2026-04-09T11:43:28.904Z</time></trkpt><trkpt lat="43.2915787" lon="12.5834752"><ele>482.5</ele><time>2026-04-09T11:43:30.904Z</time></trkpt><trkpt lat="43.2916192" lon="12.5835529"><ele>483.66666666666663</ele><time>2026-04-09T11:43:31.904Z</time></trkpt><trkpt lat="43.2916559" lon="12.5836272"><ele>484.8333333333333</ele><time>2026-04-09T11:43:32.904Z</time></trkpt><trkpt lat="43.2916993" lon="12.5837168"><ele>486.0</ele><time>2026-04-09T11:43:33.904Z</time></trkpt><trkpt lat="43.2917436" lon="12.5838013"><ele>486.0</ele><time>2026-04-09T11:43:34.905Z</time></trkpt><trkpt lat="43.2917824" lon="12.5838875"><ele>486.0</ele><time>2026-04-09T11:43:35.904Z</time></trkpt><trkpt lat="43.2918213" lon="12.5839706"><ele>486.0</ele><time>2026-04-09T11:43:36.904Z</time></trkpt><trkpt lat="43.2918912" lon="12.5841293"><ele>486.0</ele><time>2026-04-09T11:43:38.904Z</time></trkpt><trkpt lat="43.291959" lon="12.5842665"><ele>486.0</ele><time>2026-04-09T11:43:40.905Z</time></trkpt><trkpt lat="43.2920257" lon="12.584383"><ele>486.0</ele><time>2026-04-09T11:43:42.904Z</time></trkpt><trkpt lat="43.2920914" lon="12.584483"><ele>486.0</ele><time>2026-04-09T11:43:44.905Z</time></trkpt><trkpt lat="43.2921713" lon="12.5845624"><ele>486.0</ele><time>2026-04-09T11:43:46.904Z</time></trkpt><trkpt lat="43.2922426" lon="12.5845979"><ele>486.0</ele><time>2026-04-09T11:43:48.904Z</time></trkpt><trkpt lat="43.292336" lon="12.5845616"><ele>486.0</ele><time>2026-04-09T11:44:09.904Z</time></trkpt><trkpt lat="43.2923995" lon="12.584537"><ele>486.0</ele><time>2026-04-09T11:44:11.904Z</time></trkpt><trkpt lat="43.2924806" lon="12.5845043"><ele>485.4</ele><time>2026-04-09T11:44:13.905Z</time></trkpt><trkpt lat="43.2925737" lon="12.5844658"><ele>484.8</ele><time>2026-04-09T11:44:15.904Z</time></trkpt><trkpt lat="43.2926633" lon="12.5844266"><ele>484.19999999999993</ele><time>2026-04-09T11:44:17.904Z</time></trkpt><trkpt lat="43.2927566" lon="12.5843977"><ele>483.59999999999997</ele><time>2026-04-09T11:44:19.904Z</time></trkpt><trkpt lat="43.2928646" lon="12.5843749"><ele>483.0</ele><time>2026-04-09T11:44:21.904Z</time></trkpt><trkpt lat="43.292976" lon="12.5843755"><ele>483.0</ele><time>2026-04-09T11:44:23.904Z</time></trkpt><trkpt lat="43.2930881" lon="12.5844138"><ele>482.99999999999994</ele><time>2026-04-09T11:44:25.903Z</time></trkpt><trkpt lat="43.2931964" lon="12.5844865"><ele>482.99999999999994</ele><time>2026-04-09T11:44:27.905Z</time></trkpt><trkpt lat="43.2932531" lon="12.5845261"><ele>483.0</ele><time>2026-04-09T11:44:28.904Z</time></trkpt><trkpt lat="43.2933708" lon="12.5845926"><ele>483.0</ele><time>2026-04-09T11:44:30.904Z</time></trkpt><trkpt lat="43.2934987" lon="12.5846416"><ele>482.8333333333333</ele><time>2026-04-09T11:44:32.904Z</time></trkpt><trkpt lat="43.2935656" lon="12.5846699"><ele>482.66666666666663</ele><time>2026-04-09T11:44:33.904Z</time></trkpt><trkpt lat="43.2936369" lon="12.584686"><ele>482.5</ele><time>2026-04-09T11:44:34.904Z</time></trkpt><trkpt lat="43.2936992" lon="12.5847085"><ele>482.3333333333333</ele><time>2026-04-09T11:44:35.905Z</time></trkpt><trkpt lat="43.2937708" lon="12.5847274"><ele>482.16666666666663</ele><time>2026-04-09T11:44:36.905Z</time></trkpt><trkpt lat="43.2938949" lon="12.5847631"><ele>482.0</ele><time>2026-04-09T11:44:38.905Z</time></trkpt><trkpt lat="43.2939675" lon="12.5847765"><ele>482.0</ele><time>2026-04-09T11:44:39.904Z</time></trkpt><trkpt lat="43.2940378" lon="12.5847926"><ele>482.00000000000006</ele><time>2026-04-09T11:44:40.904Z</time></trkpt><trkpt lat="43.2941101" lon="12.584806"><ele>482.0</ele><time>2026-04-09T11:44:41.903Z</time></trkpt><trkpt lat="43.2941743" lon="12.584812"><ele>482.0</ele><time>2026-04-09T11:44:42.904Z</time></trkpt><trkpt lat="43.2942497" lon="12.5848076"><ele>482.00000000000006</ele><time>2026-04-09T11:44:43.904Z</time></trkpt><trkpt lat="43.2943176" lon="12.5848034"><ele>482.0</ele><time>2026-04-09T11:44:44.905Z</time></trkpt><trkpt lat="43.2943941" lon="12.5847927"><ele>482.0</ele><time>2026-04-09T11:44:45.904Z</time></trkpt><trkpt lat="43.2944592" lon="12.5847617"><ele>482.0</ele><time>2026-04-09T11:44:46.904Z</time></trkpt><trkpt lat="43.2945217" lon="12.58472"><ele>482.00000000000006</ele><time>2026-04-09T11:44:47.904Z</time></trkpt><trkpt lat="43.2945812" lon="12.5846658"><ele>482.0</ele><time>2026-04-09T11:44:48.905Z</time></trkpt><trkpt lat="43.2946281" lon="12.5845812"><ele>482.0</ele><time>2026-04-09T11:44:49.905Z</time></trkpt><trkpt lat="43.2946701" lon="12.5845036"><ele>482.00000000000006</ele><time>2026-04-09T11:44:50.904Z</time></trkpt><trkpt lat="43.2947114" lon="12.5844176"><ele>482.0</ele><time>2026-04-09T11:44:51.903Z</time></trkpt><trkpt lat="43.2947502" lon="12.5843304"><ele>482.0</ele><time>2026-04-09T11:44:52.905Z</time></trkpt><trkpt lat="43.2947915" lon="12.5842438"><ele>479.28571428571433</ele><time>2026-04-09T11:44:53.905Z</time></trkpt><trkpt lat="43.2948381" lon="12.5841767"><ele>476.5714285714286</ele><time>2026-04-09T11:44:54.905Z</time></trkpt><trkpt lat="43.294892" lon="12.5841233"><ele>473.8571428571429</ele><time>2026-04-09T11:44:55.904Z</time></trkpt><trkpt lat="43.294966" lon="12.5840905"><ele>471.1428571428571</ele><time>2026-04-09T11:44:56.904Z</time></trkpt><trkpt lat="43.2950377" lon="12.5840662"><ele>468.4285714285714</ele><time>2026-04-09T11:44:57.905Z</time></trkpt><trkpt lat="43.2951113" lon="12.5840563"><ele>465.71428571428567</ele><time>2026-04-09T11:44:58.904Z</time></trkpt><trkpt lat="43.2951814" lon="12.5840398"><ele>463.0</ele><time>2026-04-09T11:44:59.904Z</time></trkpt><trkpt lat="43.2952449" lon="12.5840187"><ele>463.00000000000006</ele><time>2026-04-09T11:45:00.904Z</time></trkpt><trkpt lat="43.295354" lon="12.5839632"><ele>463.0</ele><time>2026-04-09T11:45:02.905Z</time></trkpt><trkpt lat="43.2954274" lon="12.5838932"><ele>463.0</ele><time>2026-04-09T11:45:04.904Z</time></trkpt><trkpt lat="43.295352" lon="12.5839318"><ele>463.0</ele><time>2026-04-09T11:45:13.904Z</time></trkpt><trkpt lat="43.2952875" lon="12.5838981"><ele>463.00000000000006</ele><time>2026-04-09T11:45:16.905Z</time></trkpt><trkpt lat="43.295299" lon="12.5839938"><ele>463.0</ele><time>2026-04-09T11:57:02.901Z</time></trkpt><trkpt lat="43.2953772" lon="12.5839808"><ele>463.00000000000006</ele><time>2026-04-09T11:57:05.901Z</time></trkpt><trkpt lat="43.2954218" lon="12.5839166"><ele>463.0</ele><time>2026-04-09T11:57:07.901Z</time></trkpt><trkpt lat="43.2954704" lon="12.5838378"><ele>463.0</ele><time>2026-04-09T11:57:09.901Z</time></trkpt><trkpt lat="43.2955194" lon="12.5837563"><ele>463.0</ele><time>2026-04-09T11:57:11.901Z</time></trkpt><trkpt lat="43.2955781" lon="12.5836638"><ele>463.00000000000006</ele><time>2026-04-09T11:57:13.901Z</time></trkpt><trkpt lat="43.2956354" lon="12.5835632"><ele>463.0</ele><time>2026-04-09T11:57:15.901Z</time></trkpt><trkpt lat="43.2956972" lon="12.5834611"><ele>462.2</ele><time>2026-04-09T11:57:17.902Z</time></trkpt><trkpt lat="43.2957561" lon="12.5833599"><ele>461.4</ele><time>2026-04-09T11:57:19.901Z</time></trkpt><trkpt lat="43.2958112" lon="12.58325"><ele>460.59999999999997</ele><time>2026-04-09T11:57:21.902Z</time></trkpt><trkpt lat="43.2958802" lon="12.5831378"><ele>459.79999999999995</ele><time>2026-04-09T11:57:23.902Z</time></trkpt><trkpt lat="43.2959495" lon="12.5830188"><ele>459.0</ele><time>2026-04-09T11:57:25.901Z</time></trkpt><trkpt lat="43.2960293" lon="12.5829038"><ele>457.79999999999995</ele><time>2026-04-09T11:57:27.901Z</time></trkpt><trkpt lat="43.2961139" lon="12.5828094"><ele>456.59999999999997</ele><time>2026-04-09T11:57:29.901Z</time></trkpt><trkpt lat="43.2962016" lon="12.5827447"><ele>455.4</ele><time>2026-04-09T11:57:31.902Z</time></trkpt><trkpt lat="43.2963126" lon="12.5826911"><ele>454.2</ele><time>2026-04-09T11:57:33.902Z</time></trkpt><trkpt lat="43.2964258" lon="12.5826438"><ele>453.0</ele><time>2026-04-09T11:57:35.903Z</time></trkpt><trkpt lat="43.296545" lon="12.582608"><ele>452.3333333333333</ele><time>2026-04-09T11:57:37.902Z</time></trkpt><trkpt lat="43.2966719" lon="12.5826006"><ele>451.66666666666663</ele><time>2026-04-09T11:57:39.902Z</time></trkpt><trkpt lat="43.2967359" lon="12.5825887"><ele>451.0</ele><time>2026-04-09T11:57:40.902Z</time></trkpt><trkpt lat="43.2968064" lon="12.5825796"><ele>450.3333333333333</ele><time>2026-04-09T11:57:41.902Z</time></trkpt><trkpt lat="43.2968849" lon="12.5825763"><ele>449.66666666666663</ele><time>2026-04-09T11:57:42.902Z</time></trkpt><trkpt lat="43.2969619" lon="12.582568"><ele>449.0</ele><time>2026-04-09T11:57:43.903Z</time></trkpt><trkpt lat="43.2970365" lon="12.582553"><ele>449.0</ele><time>2026-04-09T11:57:44.901Z</time></trkpt><trkpt lat="43.2971171" lon="12.5825373"><ele>448.99999999999994</ele><time>2026-04-09T11:57:45.902Z</time></trkpt><trkpt lat="43.2971938" lon="12.5825271"><ele>449.0</ele><time>2026-04-09T11:57:46.902Z</time></trkpt><trkpt lat="43.2972641" lon="12.5825053"><ele>449.0</ele><time>2026-04-09T11:57:47.902Z</time></trkpt><trkpt lat="43.2973357" lon="12.5824922"><ele>448.99999999999994</ele><time>2026-04-09T11:57:48.901Z</time></trkpt><trkpt lat="43.2974" lon="12.5824746"><ele>449.0</ele><time>2026-04-09T11:57:49.901Z</time></trkpt><trkpt lat="43.2974642" lon="12.5824526"><ele>449.0</ele><time>2026-04-09T11:57:50.902Z</time></trkpt><trkpt lat="43.2975272" lon="12.5824341"><ele>447.6</ele><time>2026-04-09T11:57:51.901Z</time></trkpt><trkpt lat="43.2976308" lon="12.5823898"><ele>446.2</ele><time>2026-04-09T11:57:53.902Z</time></trkpt><trkpt lat="43.2977018" lon="12.5823069"><ele>444.80000000000007</ele><time>2026-04-09T11:57:55.901Z</time></trkpt><trkpt lat="43.2977206" lon="12.5821969"><ele>443.40000000000003</ele><time>2026-04-09T11:57:57.902Z</time></trkpt><trkpt lat="43.2976996" lon="12.5820719"><ele>442.0</ele><time>2026-04-09T11:57:59.901Z</time></trkpt><trkpt lat="43.297638" lon="12.5819511"><ele>440.6666666666667</ele><time>2026-04-09T11:58:01.902Z</time></trkpt><trkpt lat="43.2975456" lon="12.5818376"><ele>439.33333333333337</ele><time>2026-04-09T11:58:03.902Z</time></trkpt><trkpt lat="43.2974956" lon="12.5817826"><ele>438.0</ele><time>2026-04-09T11:58:04.901Z</time></trkpt><trkpt lat="43.2974459" lon="12.5817199"><ele>436.66666666666663</ele><time>2026-04-09T11:58:05.902Z</time></trkpt><trkpt lat="43.2973945" lon="12.5816612"><ele>435.3333333333333</ele><time>2026-04-09T11:58:06.903Z</time></trkpt><trkpt lat="43.297345" lon="12.5815965"><ele>434.0</ele><time>2026-04-09T11:58:07.902Z</time></trkpt><trkpt lat="43.2972984" lon="12.5815318"><ele>433.16666666666663</ele><time>2026-04-09T11:58:08.903Z</time></trkpt><trkpt lat="43.297202" lon="12.5814223"><ele>432.3333333333333</ele><time>2026-04-09T11:58:10.901Z</time></trkpt><trkpt lat="43.2971087" lon="12.5813117"><ele>431.5</ele><time>2026-04-09T11:58:12.901Z</time></trkpt><trkpt lat="43.2970585" lon="12.5812544"><ele>430.66666666666663</ele><time>2026-04-09T11:58:13.902Z</time></trkpt><trkpt lat="43.2970072" lon="12.5812019"><ele>429.8333333333333</ele><time>2026-04-09T11:58:14.901Z</time></trkpt><trkpt lat="43.2969584" lon="12.5811434"><ele>429.0</ele><time>2026-04-09T11:58:15.902Z</time></trkpt><trkpt lat="43.2968655" lon="12.5810292"><ele>429.0</ele><time>2026-04-09T11:58:17.901Z</time></trkpt><trkpt lat="43.2967794" lon="12.5809256"><ele>429.0</ele><time>2026-04-09T11:58:19.902Z</time></trkpt><trkpt lat="43.2966948" lon="12.5808389"><ele>429.0</ele><time>2026-04-09T11:58:21.902Z</time></trkpt><trkpt lat="43.2966101" lon="12.5807772"><ele>429.0</ele><time>2026-04-09T11:58:23.901Z</time></trkpt><trkpt lat="43.2965151" lon="12.5807555"><ele>429.0</ele><time>2026-04-09T11:58:25.901Z</time></trkpt><trkpt lat="43.2964174" lon="12.5807748"><ele>429.0</ele><time>2026-04-09T11:58:27.901Z</time></trkpt><trkpt lat="43.2963356" lon="12.580833"><ele>429.0</ele><time>2026-04-09T11:58:29.901Z</time></trkpt><trkpt lat="43.2962655" lon="12.5808374"><ele>429.0</ele><time>2026-04-09T11:58:32.901Z</time></trkpt><trkpt lat="43.2962278" lon="12.5807575"><ele>429.0</ele><time>2026-04-09T11:58:35.902Z</time></trkpt><trkpt lat="43.2962542" lon="12.580664"><ele>429.0</ele><time>2026-04-09T11:58:37.902Z</time></trkpt><trkpt lat="43.2963565" lon="12.5805772"><ele>429.0</ele><time>2026-04-09T11:58:39.902Z</time></trkpt><trkpt lat="43.2964538" lon="12.580478"><ele>429.0</ele><time>2026-04-09T11:58:41.901Z</time></trkpt><trkpt lat="43.2965043" lon="12.5804232"><ele>429.0</ele><time>2026-04-09T11:58:42.902Z</time></trkpt><trkpt lat="43.2966051" lon="12.5803095"><ele>429.0</ele><time>2026-04-09T11:58:44.902Z</time></trkpt><trkpt lat="43.2966643" lon="12.5802639"><ele>429.0</ele><time>2026-04-09T11:58:45.901Z</time></trkpt><trkpt lat="43.2967683" lon="12.5801519"><ele>429.0</ele><time>2026-04-09T11:58:47.902Z</time></trkpt><trkpt lat="43.2968392" lon="12.5801288"><ele>426.6</ele><time>2026-04-09T11:58:48.902Z</time></trkpt><trkpt lat="43.2969021" lon="12.5800974"><ele>424.2</ele><time>2026-04-09T11:58:49.901Z</time></trkpt><trkpt lat="43.2970139" lon="12.580026"><ele>421.8</ele><time>2026-04-09T11:58:51.902Z</time></trkpt><trkpt lat="43.2971014" lon="12.5799055"><ele>419.40000000000003</ele><time>2026-04-09T11:58:53.902Z</time></trkpt><trkpt lat="43.2971132" lon="12.5798128"><ele>417.0</ele><time>2026-04-09T11:58:54.901Z</time></trkpt><trkpt lat="43.297154" lon="12.57966"><ele>416.6666666666667</ele><time>2026-04-09T11:58:56.902Z</time></trkpt><trkpt lat="43.2971977" lon="12.5795056"><ele>416.33333333333337</ele><time>2026-04-09T11:58:58.901Z</time></trkpt><trkpt lat="43.2971876" lon="12.5794033"><ele>416.0</ele><time>2026-04-09T11:59:00.903Z</time></trkpt><trkpt lat="43.2971291" lon="12.5793676"><ele>415.6666666666667</ele><time>2026-04-09T11:59:02.901Z</time></trkpt><trkpt lat="43.2970473" lon="12.5793635"><ele>415.33333333333337</ele><time>2026-04-09T11:59:04.901Z</time></trkpt><trkpt lat="43.2969443" lon="12.5793632"><ele>415.0</ele><time>2026-04-09T11:59:06.901Z</time></trkpt><trkpt lat="43.2968461" lon="12.5793585"><ele>415.0</ele><time>2026-04-09T11:59:08.901Z</time></trkpt><trkpt lat="43.2967428" lon="12.5793658"><ele>415.0</ele><time>2026-04-09T11:59:10.902Z</time></trkpt><trkpt lat="43.2966319" lon="12.5793723"><ele>415.0</ele><time>2026-04-09T11:59:12.901Z</time></trkpt><trkpt lat="43.2965137" lon="12.5793783"><ele>415.0</ele><time>2026-04-09T11:59:14.901Z</time></trkpt><trkpt lat="43.2963891" lon="12.5793864"><ele>415.6</ele><time>2026-04-09T11:59:16.902Z</time></trkpt><trkpt lat="43.2962672" lon="12.5793894"><ele>416.2</ele><time>2026-04-09T11:59:18.901Z</time></trkpt><trkpt lat="43.2962035" lon="12.5793892"><ele>416.79999999999995</ele><time>2026-04-09T11:59:19.901Z</time></trkpt><trkpt lat="43.2961374" lon="12.5793887"><ele>417.4</ele><time>2026-04-09T11:59:20.901Z</time></trkpt><trkpt lat="43.2960224" lon="12.5793977"><ele>418.0</ele><time>2026-04-09T11:59:22.902Z</time></trkpt><trkpt lat="43.2959039" lon="12.5793936"><ele>418.0</ele><time>2026-04-09T11:59:24.901Z</time></trkpt><trkpt lat="43.2957928" lon="12.5793948"><ele>418.0</ele><time>2026-04-09T11:59:26.902Z</time></trkpt><trkpt lat="43.29568" lon="12.5793915"><ele>418.0</ele><time>2026-04-09T11:59:28.9Z</time></trkpt><trkpt lat="43.2955727" lon="12.5793833"><ele>418.0</ele><time>2026-04-09T11:59:30.901Z</time></trkpt><trkpt lat="43.2954687" lon="12.5793691"><ele>418.0</ele><time>2026-04-09T11:59:32.902Z</time></trkpt><trkpt lat="43.2953621" lon="12.5793648"><ele>420.00000000000006</ele><time>2026-04-09T11:59:34.901Z</time></trkpt><trkpt lat="43.2952628" lon="12.5793704"><ele>422.0</ele><time>2026-04-09T11:59:36.901Z</time></trkpt><trkpt lat="43.2951755" lon="12.5793737"><ele>424.0</ele><time>2026-04-09T11:59:38.902Z</time></trkpt><trkpt lat="43.2950948" lon="12.5794022"><ele>426.0</ele><time>2026-04-09T11:59:40.9Z</time></trkpt><trkpt lat="43.2950165" lon="12.579432"><ele>428.00000000000006</ele><time>2026-04-09T11:59:42.902Z</time></trkpt><trkpt lat="43.294945" lon="12.5794625"><ele>430.0</ele><time>2026-04-09T11:59:44.901Z</time></trkpt><trkpt lat="43.2948738" lon="12.5794876"><ele>429.1428571428571</ele><time>2026-04-09T11:59:46.901Z</time></trkpt><trkpt lat="43.2948132" lon="12.579519"><ele>428.28571428571433</ele><time>2026-04-09T11:59:48.901Z</time></trkpt><trkpt lat="43.2947477" lon="12.5795617"><ele>427.42857142857144</ele><time>2026-04-09T11:59:50.901Z</time></trkpt><trkpt lat="43.2946773" lon="12.5795925"><ele>426.57142857142856</ele><time>2026-04-09T11:59:52.901Z</time></trkpt><trkpt lat="43.2946159" lon="12.5796209"><ele>425.71428571428567</ele><time>2026-04-09T11:59:54.901Z</time></trkpt><trkpt lat="43.2945489" lon="12.5796408"><ele>424.8571428571429</ele><time>2026-04-09T11:59:56.903Z</time></trkpt><trkpt lat="43.2944792" lon="12.5796504"><ele>424.0</ele><time>2026-04-09T11:59:58.902Z</time></trkpt><trkpt lat="43.2944028" lon="12.5796485"><ele>424.00000000000006</ele><time>2026-04-09T12:00:00.902Z</time></trkpt><trkpt lat="43.2943226" lon="12.5796366"><ele>424.0</ele><time>2026-04-09T12:00:02.901Z</time></trkpt><trkpt lat="43.2942391" lon="12.5796348"><ele>424.0</ele><time>2026-04-09T12:00:04.903Z</time></trkpt><trkpt lat="43.2941521" lon="12.5796324"><ele>424.0</ele><time>2026-04-09T12:00:06.902Z</time></trkpt><trkpt lat="43.2940584" lon="12.5796251"><ele>424.00000000000006</ele><time>2026-04-09T12:00:08.9Z</time></trkpt><trkpt lat="43.29396" lon="12.5796096"><ele>424.0</ele><time>2026-04-09T12:00:10.901Z</time></trkpt><trkpt lat="43.2938592" lon="12.5795945"><ele>425.4</ele><time>2026-04-09T12:00:12.901Z</time></trkpt><trkpt lat="43.2937626" lon="12.5795608"><ele>426.79999999999995</ele><time>2026-04-09T12:00:14.901Z</time></trkpt><trkpt lat="43.2936676" lon="12.5795159"><ele>428.20000000000005</ele><time>2026-04-09T12:00:16.902Z</time></trkpt><trkpt lat="43.2935739" lon="12.5794533"><ele>429.6</ele><time>2026-04-09T12:00:18.901Z</time></trkpt><trkpt lat="43.2934782" lon="12.5793939"><ele>431.0</ele><time>2026-04-09T12:00:20.901Z</time></trkpt><trkpt lat="43.293385" lon="12.5793482"><ele>433.4</ele><time>2026-04-09T12:00:22.902Z</time></trkpt><trkpt lat="43.2932919" lon="12.5793005"><ele>435.8</ele><time>2026-04-09T12:00:24.902Z</time></trkpt><trkpt lat="43.2931976" lon="12.5792672"><ele>438.19999999999993</ele><time>2026-04-09T12:00:26.901Z</time></trkpt><trkpt lat="43.2931" lon="12.5792156"><ele>440.59999999999997</ele><time>2026-04-09T12:00:28.902Z</time></trkpt><trkpt lat="43.2930034" lon="12.5791552"><ele>443.0</ele><time>2026-04-09T12:00:30.9Z</time></trkpt><trkpt lat="43.2929019" lon="12.5790678"><ele>443.0</ele><time>2026-04-09T12:00:32.901Z</time></trkpt><trkpt lat="43.2927937" lon="12.5789852"><ele>442.99999999999994</ele><time>2026-04-09T12:00:34.903Z</time></trkpt><trkpt lat="43.2927342" lon="12.5789483"><ele>442.99999999999994</ele><time>2026-04-09T12:00:35.901Z</time></trkpt><trkpt lat="43.2926188" lon="12.578886"><ele>443.0</ele><time>2026-04-09T12:00:37.902Z</time></trkpt><trkpt lat="43.2925593" lon="12.5788493"><ele>443.0</ele><time>2026-04-09T12:00:38.901Z</time></trkpt><trkpt lat="43.2924496" lon="12.5787763"><ele>443.25</ele><time>2026-04-09T12:00:40.902Z</time></trkpt><trkpt lat="43.2923422" lon="12.5786836"><ele>443.5</ele><time>2026-04-09T12:00:42.901Z</time></trkpt><trkpt lat="43.2922322" lon="12.5786064"><ele>443.75</ele><time>2026-04-09T12:00:44.901Z</time></trkpt><trkpt lat="43.2921116" lon="12.5785623"><ele>444.0</ele><time>2026-04-09T12:00:46.901Z</time></trkpt><trkpt lat="43.2919883" lon="12.5785223"><ele>444.0</ele><time>2026-04-09T12:00:48.902Z</time></trkpt><trkpt lat="43.2919202" lon="12.5785088"><ele>444.0</ele><time>2026-04-09T12:00:49.9Z</time></trkpt><trkpt lat="43.2918518" lon="12.5784859"><ele>444.0</ele><time>2026-04-09T12:00:50.901Z</time></trkpt><trkpt lat="43.2917853" lon="12.5784628"><ele>444.0</ele><time>2026-04-09T12:00:51.901Z</time></trkpt><trkpt lat="43.2917191" lon="12.5784438"><ele>444.0</ele><time>2026-04-09T12:00:52.901Z</time></trkpt><trkpt lat="43.29165" lon="12.5784178"><ele>444.0</ele><time>2026-04-09T12:00:53.902Z</time></trkpt><trkpt lat="43.2915815" lon="12.5783906"><ele>444.0</ele><time>2026-04-09T12:00:54.903Z</time></trkpt><trkpt lat="43.2915169" lon="12.5783579"><ele>443.0</ele><time>2026-04-09T12:00:55.901Z</time></trkpt><trkpt lat="43.2913928" lon="12.5782976"><ele>442.0</ele><time>2026-04-09T12:00:57.902Z</time></trkpt><trkpt lat="43.2913271" lon="12.5782693"><ele>441.0</ele><time>2026-04-09T12:00:58.901Z</time></trkpt><trkpt lat="43.2912619" lon="12.5782471"><ele>440.0</ele><time>2026-04-09T12:00:59.902Z</time></trkpt><trkpt lat="43.2911409" lon="12.5781988"><ele>439.0</ele><time>2026-04-09T12:01:01.9Z</time></trkpt><trkpt lat="43.2910818" lon="12.5781688"><ele>439.0</ele><time>2026-04-09T12:01:02.901Z</time></trkpt><trkpt lat="43.2910205" lon="12.5781345"><ele>439.0</ele><time>2026-04-09T12:01:03.902Z</time></trkpt><trkpt lat="43.2909602" lon="12.5781"><ele>439.0</ele><time>2026-04-09T12:01:04.901Z</time></trkpt><trkpt lat="43.2908994" lon="12.5780685"><ele>439.0</ele><time>2026-04-09T12:01:05.902Z</time></trkpt><trkpt lat="43.2908333" lon="12.5780313"><ele>439.0</ele><time>2026-04-09T12:01:06.9Z</time></trkpt><trkpt lat="43.290771" lon="12.577994"><ele>439.0</ele><time>2026-04-09T12:01:07.901Z</time></trkpt><trkpt lat="43.2907046" lon="12.5779537"><ele>439.0</ele><time>2026-04-09T12:01:08.901Z</time></trkpt><trkpt lat="43.2906302" lon="12.5779183"><ele>438.85714285714283</ele><time>2026-04-09T12:01:09.9Z</time></trkpt><trkpt lat="43.2905571" lon="12.5778712"><ele>438.71428571428567</ele><time>2026-04-09T12:01:10.901Z</time></trkpt><trkpt lat="43.2904819" lon="12.5778406"><ele>438.57142857142856</ele><time>2026-04-09T12:01:11.9Z</time></trkpt><trkpt lat="43.2904135" lon="12.577813"><ele>438.42857142857144</ele><time>2026-04-09T12:01:12.901Z</time></trkpt><trkpt lat="43.2903417" lon="12.5777901"><ele>438.2857142857143</ele><time>2026-04-09T12:01:13.901Z</time></trkpt><trkpt lat="43.2902747" lon="12.5777719"><ele>438.14285714285717</ele><time>2026-04-09T12:01:14.901Z</time></trkpt><trkpt lat="43.2902063" lon="12.5777581"><ele>438.0</ele><time>2026-04-09T12:01:15.902Z</time></trkpt><trkpt lat="43.2901389" lon="12.5777469"><ele>439.1666666666667</ele><time>2026-04-09T12:01:16.902Z</time></trkpt><trkpt lat="43.2900687" lon="12.5777413"><ele>440.33333333333337</ele><time>2026-04-09T12:01:17.901Z</time></trkpt><trkpt lat="43.2900041" lon="12.5777386"><ele>441.5</ele><time>2026-04-09T12:01:18.901Z</time></trkpt><trkpt lat="43.2898777" lon="12.5777057"><ele>442.6666666666667</ele><time>2026-04-09T12:01:20.902Z</time></trkpt><trkpt lat="43.2898142" lon="12.5776837"><ele>443.83333333333337</ele><time>2026-04-09T12:01:21.9Z</time></trkpt><trkpt lat="43.2897475" lon="12.5776636"><ele>445.0</ele><time>2026-04-09T12:01:22.901Z</time></trkpt><trkpt lat="43.2896834" lon="12.577632"><ele>445.00000000000006</ele><time>2026-04-09T12:01:23.901Z</time></trkpt><trkpt lat="43.2896216" lon="12.5775969"><ele>445.0</ele><time>2026-04-09T12:01:24.901Z</time></trkpt><trkpt lat="43.2895579" lon="12.5775613"><ele>445.0</ele><time>2026-04-09T12:01:25.9Z</time></trkpt><trkpt lat="43.2894991" lon="12.5775165"><ele>445.0</ele><time>2026-04-09T12:01:26.901Z</time></trkpt><trkpt lat="43.2894431" lon="12.5774675"><ele>445.00000000000006</ele><time>2026-04-09T12:01:27.9Z</time></trkpt><trkpt lat="43.2893385" lon="12.5773677"><ele>445.0</ele><time>2026-04-09T12:01:29.902Z</time></trkpt><trkpt lat="43.2892778" lon="12.577334"><ele>445.00000000000006</ele><time>2026-04-09T12:01:30.9Z</time></trkpt><trkpt lat="43.2892174" lon="12.5773003"><ele>445.0</ele><time>2026-04-09T12:01:31.902Z</time></trkpt><trkpt lat="43.2891526" lon="12.5772715"><ele>445.0</ele><time>2026-04-09T12:01:32.901Z</time></trkpt><trkpt lat="43.2890485" lon="12.577222"><ele>445.0</ele><time>2026-04-09T12:01:34.901Z</time></trkpt><trkpt lat="43.2889877" lon="12.5771304"><ele>445.00000000000006</ele><time>2026-04-09T12:01:36.901Z</time></trkpt><trkpt lat="43.2890026" lon="12.5770344"><ele>445.0</ele><time>2026-04-09T12:01:39.901Z</time></trkpt><trkpt lat="43.2890541" lon="12.5769704"><ele>446.50000000000006</ele><time>2026-04-09T12:01:41.901Z</time></trkpt><trkpt lat="43.2890938" lon="12.5768956"><ele>448.0</ele><time>2026-04-09T12:01:43.9Z</time></trkpt><trkpt lat="43.2891352" lon="12.5768203"><ele>449.5</ele><time>2026-04-09T12:01:45.9Z</time></trkpt><trkpt lat="43.2891922" lon="12.5767367"><ele>451.0</ele><time>2026-04-09T12:01:47.9Z</time></trkpt><trkpt lat="43.2892481" lon="12.5766542"><ele>452.50000000000006</ele><time>2026-04-09T12:01:49.901Z</time></trkpt><trkpt lat="43.2893033" lon="12.5765689"><ele>454.0</ele><time>2026-04-09T12:01:51.9Z</time></trkpt><trkpt lat="43.289361" lon="12.5764928"><ele>454.00000000000006</ele><time>2026-04-09T12:01:53.901Z</time></trkpt><trkpt lat="43.2894261" lon="12.5764175"><ele>454.0</ele><time>2026-04-09T12:01:55.901Z</time></trkpt><trkpt lat="43.2895003" lon="12.5763634"><ele>454.0</ele><time>2026-04-09T12:01:57.901Z</time></trkpt><trkpt lat="43.2895816" lon="12.5763332"><ele>454.0</ele><time>2026-04-09T12:01:59.901Z</time></trkpt><trkpt lat="43.289667" lon="12.5763286"><ele>454.00000000000006</ele><time>2026-04-09T12:02:01.901Z</time></trkpt><trkpt lat="43.2897528" lon="12.5763342"><ele>454.0</ele><time>2026-04-09T12:02:03.901Z</time></trkpt><trkpt lat="43.2898323" lon="12.5763365"><ele>454.14285714285717</ele><time>2026-04-09T12:02:05.873Z</time></trkpt><trkpt lat="43.2899043" lon="12.576331"><ele>454.28571428571433</ele><time>2026-04-09T12:02:07.836Z</time></trkpt><trkpt lat="43.2899824" lon="12.5763268"><ele>454.42857142857144</ele><time>2026-04-09T12:02:09.873Z</time></trkpt><trkpt lat="43.2900595" lon="12.5763308"><ele>454.57142857142856</ele><time>2026-04-09T12:02:11.901Z</time></trkpt><trkpt lat="43.2901297" lon="12.5763339"><ele>454.7142857142857</ele><time>2026-04-09T12:02:13.863Z</time></trkpt><trkpt lat="43.2902009" lon="12.576331"><ele>454.8571428571429</ele><time>2026-04-09T12:02:15.901Z</time></trkpt><trkpt lat="43.2902698" lon="12.5763239"><ele>455.0</ele><time>2026-04-09T12:02:17.901Z</time></trkpt><trkpt lat="43.290335" lon="12.5763164"><ele>454.99999999999994</ele><time>2026-04-09T12:02:19.901Z</time></trkpt><trkpt lat="43.2904024" lon="12.5763086"><ele>455.0</ele><time>2026-04-09T12:02:21.914Z</time></trkpt><trkpt lat="43.2904735" lon="12.5762921"><ele>455.0</ele><time>2026-04-09T12:02:23.9Z</time></trkpt><trkpt lat="43.2905519" lon="12.576273"><ele>455.0</ele><time>2026-04-09T12:02:25.9Z</time></trkpt><trkpt lat="43.2906363" lon="12.5762596"><ele>454.99999999999994</ele><time>2026-04-09T12:02:27.9Z</time></trkpt><trkpt lat="43.2907205" lon="12.5762525"><ele>455.0</ele><time>2026-04-09T12:02:29.902Z</time></trkpt><trkpt lat="43.2908051" lon="12.5762309"><ele>456.3333333333333</ele><time>2026-04-09T12:02:31.902Z</time></trkpt><trkpt lat="43.2908957" lon="12.5762216"><ele>457.66666666666663</ele><time>2026-04-09T12:02:33.901Z</time></trkpt><trkpt lat="43.2909916" lon="12.5762171"><ele>459.0</ele><time>2026-04-09T12:02:35.902Z</time></trkpt><trkpt lat="43.2910821" lon="12.5762084"><ele>460.33333333333337</ele><time>2026-04-09T12:02:37.901Z</time></trkpt><trkpt lat="43.2911628" lon="12.5761944"><ele>461.6666666666667</ele><time>2026-04-09T12:02:39.9Z</time></trkpt><trkpt lat="43.2912303" lon="12.5762043"><ele>463.0</ele><time>2026-04-09T12:02:42.9Z</time></trkpt><trkpt lat="43.2913117" lon="12.5761576"><ele>473.0</ele><time>2026-04-09T12:02:44.901Z</time></trkpt><trkpt lat="43.2913864" lon="12.5761099"><ele>473.0</ele><time>2026-04-09T12:02:46.901Z</time></trkpt><trkpt lat="43.2914622" lon="12.5761337"><ele>460.0</ele><time>2026-04-09T12:02:49.901Z</time></trkpt><trkpt lat="43.2914796" lon="12.5762324"><ele>470.0</ele><time>2026-04-09T12:02:52.9Z</time></trkpt><trkpt lat="43.2914658" lon="12.5763441"><ele>470.0</ele><time>2026-04-09T12:02:56.901Z</time></trkpt><trkpt lat="43.2914095" lon="12.5764126"><ele>463.0</ele><time>2026-04-09T12:03:00.9Z</time></trkpt></trkseg></trk></gpx>